Montrose, Minnesota
Current Conditions -  °F | °C
As of 10:35 PM on Saturday 22 Nov 2014 (Local Time) from KCFE Reporting Station
Haze Haze  
Wind Chill:   Ceiling: 300
Heat Index:   Visibility: 1.5mi
Dew Point:   Wind: 3mph
Humidity: 95%   Direction: 130°SE
Pressure: 29.5"   Gusts: NA
Location:  45.06°N, 93.91°W
Report Text: KCFE 230435Z AUTO 13003KT 1 1/2SM BR OVC003 03/02 A2950 RMK AO2 T00300023
Loading
Personal Weather Stations






























Interactive Weather Map New forecast layout! Learn more

10-Day Weather Forecast

Advertisements
Track Severe Weather on mobile